Terminal Aerodrome Forecast
Issued by NWS

Home | Current Version | Previous Version | Text Only | Print | Product List | Glossary On
Versions: 1 2 3 4 5 6 7 8 9 10 11 12
896
FTUS45 KRIW 061725
TAFWRL
TAF
KWRL 061725Z 0618/0718 VRB05KT P6SM SCT060
     FM070300 33006KT P6SM SCT025 BKN040
     FM070800 VRB06KT P6SM VCSH BKN040
     FM071700 VRB06KT P6SM BKN060=

USA.gov is the U.S. government's official web portal to all federal, state and local government web resources and services.